Aérodrome :
LOGIN :

S'inscrire | Disclaimer

   EN    FR    IT 

 










Légende :    VFR   VFR Marginal   IFR   IFR Intensif   IFR Très Intensif
Visi : 
Plafond : 
>= 8 km
>= 3000ft
5 à 8 km
1000 à 3000 ft
1500m à 5 km
500 à 1000 ft
800 à 1500m
200 à 500 ft
< 800m
< 200 ft
Symboles :   Orages  Brouillard  Fortes neiges  Fortes précipitations  Vent > 20 kt
SIGMETs :   Divers  Orages  Givrage  Turbulence  Onde Orograph.  Cendres Volcan.






- Altitude de l'aérodrome : 265 ft
- Code IATA : BJY


LYBT - Batajnica Air Base

DERNIER METAR :
  • 132330Z 10002KT CAVOK 20/16 Q1013 NOSIG

METARs EXPIRÉS :
  • 132300Z VRB01KT CAVOK 20/15 Q1013 NOSIG
  • 132230Z 09001KT CAVOK 21/15 Q1014 NOSIG
  • 132200Z 11002KT CAVOK 21/14 Q1014 NOSIG
  • 132130Z 09004KT CAVOK 20/14 Q1014 NOSIG
  • 132100Z 10003KT CAVOK 21/15 Q1014 NOSIG

TAF TAF LYBT
Valide du 14 à 00h jusqu'au 15 à 00h UTC


132300Z 1400/1424 12005KT CAVOK TX33/1413Z TN18/1403Z
PROB30
TEMPO 1412/1415 TSRA SCT040CB



MET'MAP, la Météo Aéronautique d'un coup d'oeil ! - Copyright ORBIFLY Décembre 2007 - Disclaimer

ORBIFLY MET'MAP TEAM :

Programmation & Développement : Alexandra Zaïnal
Sur une idée originale de : Baudouin d'Aumeries
Assistance à la programmation : Marc-Olivier Méhu
Soutien technique & logistique : Manuel Goepfert

Contact : metmap@orbifly.com




SOURCES & CREDITS :

   NOAA